sensor_id;sensor_type;location;lat;lon;timestamp;P1;durP1;ratioP1;P2;durP2;ratioP2
46653;SDS011;38960;51.074;17.004;2022-12-18T00:01:52;47.13;;;21.40;;
46653;SDS011;38960;51.074;17.004;2022-12-18T00:04:20;44.27;;;20.27;;
46653;SDS011;38960;51.074;17.004;2022-12-18T00:06:47;51.03;;;21.53;;
46653;SDS011;38960;51.074;17.004;2022-12-18T00:09:12;50.70;;;21.97;;
46653;SDS011;38960;51.074;17.004;2022-12-18T00:11:38;46.17;;;20.17;;
46653;SDS011;38960;51.074;17.004;2022-12-18T00:14:03;46.37;;;20.67;;
46653;SDS011;38960;51.074;17.004;2022-12-18T00:16:29;38.53;;;18.57;;
46653;SDS011;38960;51.074;17.004;2022-12-18T00:19:00;40.63;;;18.10;;
46653;SDS011;38960;51.074;17.004;2022-12-18T00:21:26;36.60;;;18.27;;
46653;SDS011;38960;51.074;17.004;2022-12-18T00:23:53;37.13;;;18.80;;
46653;SDS011;38960;51.074;17.004;2022-12-18T00:26:23;39.37;;;19.13;;
46653;SDS011;38960;51.074;17.004;2022-12-18T00:28:59;38.43;;;17.40;;
46653;SDS011;38960;51.074;17.004;2022-12-18T00:31:26;46.93;;;19.87;;
46653;SDS011;38960;51.074;17.004;2022-12-18T00:33:56;40.43;;;19.67;;
46653;SDS011;38960;51.074;17.004;2022-12-18T00:36:23;40.90;;;19.43;;
46653;SDS011;38960;51.074;17.004;2022-12-18T00:38:57;38.83;;;17.40;;
46653;SDS011;38960;51.074;17.004;2022-12-18T00:41:23;42.77;;;18.17;;
46653;SDS011;38960;51.074;17.004;2022-12-18T00:44:09;39.27;;;18.60;;
46653;SDS011;38960;51.074;17.004;2022-12-18T00:46:36;42.40;;;19.50;;
46653;SDS011;38960;51.074;17.004;2022-12-18T00:49:02;40.50;;;17.77;;
46653;SDS011;38960;51.074;17.004;2022-12-18T00:51:28;42.63;;;19.77;;
46653;SDS011;38960;51.074;17.004;2022-12-18T00:53:54;42.80;;;19.50;;
46653;SDS011;38960;51.074;17.004;2022-12-18T00:56:19;42.53;;;19.83;;
46653;SDS011;38960;51.074;17.004;2022-12-18T00:58:45;43.87;;;19.77;;
46653;SDS011;38960;51.074;17.004;2022-12-18T01:01:10;40.70;;;18.77;;
46653;SDS011;38960;51.074;17.004;2022-12-18T01:03:36;45.07;;;19.47;;
46653;SDS011;38960;51.074;17.004;2022-12-18T01:06:06;47.87;;;21.70;;
46653;SDS011;38960;51.074;17.004;2022-12-18T01:08:32;44.27;;;18.87;;
46653;SDS011;38960;51.074;17.004;2022-12-18T01:10:58;37.93;;;17.93;;
46653;SDS011;38960;51.074;17.004;2022-12-18T01:13:24;36.63;;;16.97;;
46653;SDS011;38960;51.074;17.004;2022-12-18T01:15:50;35.53;;;16.57;;
46653;SDS011;38960;51.074;17.004;2022-12-18T01:18:15;41.60;;;19.00;;
46653;SDS011;38960;51.074;17.004;2022-12-18T01:20:41;38.70;;;18.90;;
46653;SDS011;38960;51.074;17.004;2022-12-18T01:23:06;44.77;;;19.30;;
46653;SDS011;38960;51.074;17.004;2022-12-18T01:25:32;37.77;;;18.57;;
46653;SDS011;38960;51.074;17.004;2022-12-18T01:27:58;40.83;;;18.20;;
46653;SDS011;38960;51.074;17.004;2022-12-18T01:30:23;40.20;;;16.83;;
46653;SDS011;38960;51.074;17.004;2022-12-18T01:32:51;36.93;;;17.13;;
46653;SDS011;38960;51.074;17.004;2022-12-18T01:35:18;41.93;;;18.73;;
46653;SDS011;38960;51.074;17.004;2022-12-18T01:37:45;36.97;;;17.60;;
46653;SDS011;38960;51.074;17.004;2022-12-18T01:40:11;40.37;;;17.43;;
46653;SDS011;38960;51.074;17.004;2022-12-18T01:42:38;41.90;;;19.50;;
46653;SDS011;38960;51.074;17.004;2022-12-18T01:49:55;34.70;;;16.87;;
46653;SDS011;38960;51.074;17.004;2022-12-18T01:52:21;41.50;;;17.93;;
46653;SDS011;38960;51.074;17.004;2022-12-18T01:54:48;38.07;;;17.23;;
46653;SDS011;38960;51.074;17.004;2022-12-18T01:57:14;38.07;;;17.67;;
46653;SDS011;38960;51.074;17.004;2022-12-18T01:59:40;38.20;;;17.73;;
46653;SDS011;38960;51.074;17.004;2022-12-18T02:02:07;38.83;;;17.33;;
46653;SDS011;38960;51.074;17.004;2022-12-18T02:04:33;38.60;;;17.73;;
46653;SDS011;38960;51.074;17.004;2022-12-18T02:07:12;43.37;;;18.83;;
46653;SDS011;38960;51.074;17.004;2022-12-18T02:12:35;40.47;;;17.80;;
46653;SDS011;38960;51.074;17.004;2022-12-18T02:15:47;34.97;;;15.70;;
46653;SDS011;38960;51.074;17.004;2022-12-18T02:18:14;39.27;;;16.77;;
46653;SDS011;38960;51.074;17.004;2022-12-18T02:20:49;34.80;;;16.30;;
46653;SDS011;38960;51.074;17.004;2022-12-18T02:28:31;33.60;;;15.73;;
46653;SDS011;38960;51.074;17.004;2022-12-18T02:31:02;36.95;;;16.58;;
46653;SDS011;38960;51.074;17.004;2022-12-18T02:33:30;35.80;;;16.43;;
46653;SDS011;38960;51.074;17.004;2022-12-18T02:35:57;29.23;;;14.53;;
46653;SDS011;38960;51.074;17.004;2022-12-18T02:38:25;38.60;;;16.70;;
46653;SDS011;38960;51.074;17.004;2022-12-18T02:40:52;32.93;;;14.97;;
46653;SDS011;38960;51.074;17.004;2022-12-18T02:43:19;32.20;;;14.87;;
46653;SDS011;38960;51.074;17.004;2022-12-18T02:45:49;39.20;;;17.27;;
46653;SDS011;38960;51.074;17.004;2022-12-18T02:48:21;31.47;;;15.70;;
46653;SDS011;38960;51.074;17.004;2022-12-18T02:50:52;36.37;;;15.63;;
46653;SDS011;38960;51.074;17.004;2022-12-18T02:53:45;30.33;;;14.90;;
46653;SDS011;38960;51.074;17.004;2022-12-18T02:56:24;34.10;;;15.70;;
46653;SDS011;38960;51.074;17.004;2022-12-18T02:59:02;34.93;;;15.80;;
46653;SDS011;38960;51.074;17.004;2022-12-18T03:01:51;40.25;;;16.00;;
46653;SDS011;38960;51.074;17.004;2022-12-18T03:07:00;35.33;;;17.23;;
46653;SDS011;38960;51.074;17.004;2022-12-18T03:09:31;32.50;;;16.10;;
46653;SDS011;38960;51.074;17.004;2022-12-18T03:15:04;37.53;;;17.13;;
46653;SDS011;38960;51.074;17.004;2022-12-18T03:17:35;39.87;;;18.67;;
46653;SDS011;38960;51.074;17.004;2022-12-18T03:20:09;37.83;;;16.70;;
46653;SDS011;38960;51.074;17.004;2022-12-18T03:22:37;33.83;;;15.53;;
46653;SDS011;38960;51.074;17.004;2022-12-18T03:25:04;34.43;;;15.27;;
46653;SDS011;38960;51.074;17.004;2022-12-18T03:27:33;35.77;;;16.00;;
46653;SDS011;38960;51.074;17.004;2022-12-18T03:30:06;35.90;;;16.07;;
46653;SDS011;38960;51.074;17.004;2022-12-18T03:32:41;35.40;;;15.87;;
46653;SDS011;38960;51.074;17.004;2022-12-18T03:35:11;35.30;;;16.70;;
46653;SDS011;38960;51.074;17.004;2022-12-18T03:37:37;35.37;;;16.80;;
46653;SDS011;38960;51.074;17.004;2022-12-18T03:40:03;30.43;;;14.97;;
46653;SDS011;38960;51.074;17.004;2022-12-18T03:45:26;36.13;;;15.80;;
46653;SDS011;38960;51.074;17.004;2022-12-18T03:48:07;37.70;;;16.47;;
46653;SDS011;38960;51.074;17.004;2022-12-18T03:50:56;33.73;;;14.87;;
46653;SDS011;38960;51.074;17.004;2022-12-18T03:55:58;33.70;;;14.80;;
46653;SDS011;38960;51.074;17.004;2022-12-18T03:58:30;37.75;;;16.98;;
46653;SDS011;38960;51.074;17.004;2022-12-18T04:01:12;34.63;;;14.77;;
46653;SDS011;38960;51.074;17.004;2022-12-18T04:03:39;33.60;;;15.93;;
46653;SDS011;38960;51.074;17.004;2022-12-18T04:06:06;37.73;;;16.50;;
46653;SDS011;38960;51.074;17.004;2022-12-18T04:08:32;39.67;;;17.30;;
46653;SDS011;38960;51.074;17.004;2022-12-18T04:11:03;41.20;;;17.37;;
46653;SDS011;38960;51.074;17.004;2022-12-18T04:13:30;38.27;;;17.17;;
46653;SDS011;38960;51.074;17.004;2022-12-18T04:16:00;34.85;;;16.42;;
46653;SDS011;38960;51.074;17.004;2022-12-18T04:18:26;34.07;;;17.07;;
46653;SDS011;38960;51.074;17.004;2022-12-18T04:20:53;37.50;;;17.03;;
46653;SDS011;38960;51.074;17.004;2022-12-18T04:23:19;35.03;;;17.63;;
46653;SDS011;38960;51.074;17.004;2022-12-18T04:25:45;35.27;;;15.90;;
46653;SDS011;38960;51.074;17.004;2022-12-18T04:28:16;40.80;;;17.35;;
46653;SDS011;38960;51.074;17.004;2022-12-18T04:30:42;37.10;;;17.63;;
46653;SDS011;38960;51.074;17.004;2022-12-18T04:33:11;39.80;;;18.10;;
46653;SDS011;38960;51.074;17.004;2022-12-18T04:35:38;40.00;;;18.33;;
46653;SDS011;38960;51.074;17.004;2022-12-18T04:38:05;39.57;;;17.33;;
46653;SDS011;38960;51.074;17.004;2022-12-18T04:40:32;36.97;;;18.07;;
46653;SDS011;38960;51.074;17.004;2022-12-18T04:42:57;39.77;;;16.40;;
46653;SDS011;38960;51.074;17.004;2022-12-18T04:45:23;36.83;;;16.27;;
46653;SDS011;38960;51.074;17.004;2022-12-18T04:47:48;40.20;;;16.73;;
46653;SDS011;38960;51.074;17.004;2022-12-18T04:50:14;31.60;;;15.63;;
46653;SDS011;38960;51.074;17.004;2022-12-18T04:52:39;35.80;;;16.03;;
46653;SDS011;38960;51.074;17.004;2022-12-18T04:55:05;35.03;;;16.27;;
46653;SDS011;38960;51.074;17.004;2022-12-18T04:57:30;38.43;;;17.20;;
46653;SDS011;38960;51.074;17.004;2022-12-18T04:59:56;34.50;;;15.97;;
46653;SDS011;38960;51.074;17.004;2022-12-18T05:02:21;35.17;;;16.77;;
46653;SDS011;38960;51.074;17.004;2022-12-18T05:04:47;30.17;;;15.47;;
46653;SDS011;38960;51.074;17.004;2022-12-18T05:07:12;33.13;;;15.40;;
46653;SDS011;38960;51.074;17.004;2022-12-18T05:09:38;34.43;;;16.40;;
46653;SDS011;38960;51.074;17.004;2022-12-18T05:12:03;36.03;;;15.63;;
46653;SDS011;38960;51.074;17.004;2022-12-18T05:14:29;35.50;;;16.03;;
46653;SDS011;38960;51.074;17.004;2022-12-18T05:16:55;33.13;;;15.90;;
46653;SDS011;38960;51.074;17.004;2022-12-18T05:19:20;32.63;;;16.37;;
46653;SDS011;38960;51.074;17.004;2022-12-18T05:21:46;36.27;;;17.47;;
46653;SDS011;38960;51.074;17.004;2022-12-18T05:24:11;32.43;;;16.13;;
46653;SDS011;38960;51.074;17.004;2022-12-18T05:26:37;33.63;;;17.07;;
46653;SDS011;38960;51.074;17.004;2022-12-18T05:29:02;32.17;;;16.00;;
46653;SDS011;38960;51.074;17.004;2022-12-18T05:31:28;37.47;;;18.23;;
46653;SDS011;38960;51.074;17.004;2022-12-18T05:33:53;35.77;;;16.13;;
46653;SDS011;38960;51.074;17.004;2022-12-18T05:36:19;32.67;;;16.87;;
46653;SDS011;38960;51.074;17.004;2022-12-18T05:38:44;38.67;;;17.40;;
46653;SDS011;38960;51.074;17.004;2022-12-18T05:41:10;37.73;;;16.73;;
46653;SDS011;38960;51.074;17.004;2022-12-18T05:43:36;38.27;;;16.97;;
46653;SDS011;38960;51.074;17.004;2022-12-18T05:46:07;35.67;;;18.53;;
46653;SDS011;38960;51.074;17.004;2022-12-18T05:48:33;31.53;;;16.70;;
46653;SDS011;38960;51.074;17.004;2022-12-18T05:51:06;41.43;;;18.80;;
46653;SDS011;38960;51.074;17.004;2022-12-18T05:53:33;40.77;;;20.27;;
46653;SDS011;38960;51.074;17.004;2022-12-18T05:56:00;42.03;;;20.57;;
46653;SDS011;38960;51.074;17.004;2022-12-18T05:58:26;42.47;;;20.47;;
46653;SDS011;38960;51.074;17.004;2022-12-18T06:00:52;37.27;;;19.53;;
46653;SDS011;38960;51.074;17.004;2022-12-18T06:03:17;41.60;;;19.87;;
46653;SDS011;38960;51.074;17.004;2022-12-18T06:05:44;42.47;;;20.90;;
46653;SDS011;38960;51.074;17.004;2022-12-18T06:08:10;44.63;;;20.93;;
46653;SDS011;38960;51.074;17.004;2022-12-18T06:10:37;42.00;;;20.97;;
46653;SDS011;38960;51.074;17.004;2022-12-18T06:13:02;45.53;;;20.87;;
46653;SDS011;38960;51.074;17.004;2022-12-18T06:15:28;50.57;;;23.13;;
46653;SDS011;38960;51.074;17.004;2022-12-18T06:17:54;48.90;;;23.97;;
46653;SDS011;38960;51.074;17.004;2022-12-18T06:20:19;50.70;;;23.97;;
46653;SDS011;38960;51.074;17.004;2022-12-18T06:22:45;44.97;;;22.83;;
46653;SDS011;38960;51.074;17.004;2022-12-18T06:25:11;48.70;;;22.83;;
46653;SDS011;38960;51.074;17.004;2022-12-18T06:27:36;52.63;;;24.63;;
46653;SDS011;38960;51.074;17.004;2022-12-18T06:30:02;85.20;;;35.53;;
46653;SDS011;38960;51.074;17.004;2022-12-18T06:32:28;57.93;;;25.80;;
46653;SDS011;38960;51.074;17.004;2022-12-18T06:34:54;56.73;;;25.20;;
46653;SDS011;38960;51.074;17.004;2022-12-18T06:37:20;56.47;;;25.63;;
46653;SDS011;38960;51.074;17.004;2022-12-18T06:39:46;54.17;;;25.17;;
46653;SDS011;38960;51.074;17.004;2022-12-18T06:42:12;63.97;;;27.80;;
46653;SDS011;38960;51.074;17.004;2022-12-18T06:44:37;52.53;;;26.40;;
46653;SDS011;38960;51.074;17.004;2022-12-18T06:47:03;62.83;;;27.63;;
46653;SDS011;38960;51.074;17.004;2022-12-18T06:49:28;51.33;;;24.40;;
46653;SDS011;38960;51.074;17.004;2022-12-18T06:51:54;65.63;;;30.03;;
46653;SDS011;38960;51.074;17.004;2022-12-18T06:54:19;61.43;;;25.73;;
46653;SDS011;38960;51.074;17.004;2022-12-18T06:56:45;57.63;;;25.77;;
46653;SDS011;38960;51.074;17.004;2022-12-18T06:59:12;60.67;;;26.93;;
46653;SDS011;38960;51.074;17.004;2022-12-18T07:01:37;115.97;;;44.77;;
46653;SDS011;38960;51.074;17.004;2022-12-18T07:04:03;120.57;;;46.53;;
46653;SDS011;38960;51.074;17.004;2022-12-18T07:06:28;75.67;;;33.90;;
46653;SDS011;38960;51.074;17.004;2022-12-18T07:08:54;51.60;;;26.50;;
46653;SDS011;38960;51.074;17.004;2022-12-18T07:11:20;52.80;;;24.70;;
46653;SDS011;38960;51.074;17.004;2022-12-18T07:13:46;49.57;;;23.77;;
46653;SDS011;38960;51.074;17.004;2022-12-18T07:16:13;52.23;;;25.63;;
46653;SDS011;38960;51.074;17.004;2022-12-18T07:18:40;41.30;;;22.83;;
46653;SDS011;38960;51.074;17.004;2022-12-18T07:21:07;43.30;;;21.27;;
46653;SDS011;38960;51.074;17.004;2022-12-18T07:23:35;44.60;;;21.70;;
46653;SDS011;38960;51.074;17.004;2022-12-18T07:26:07;40.93;;;21.07;;
46653;SDS011;38960;51.074;17.004;2022-12-18T07:28:35;38.20;;;19.60;;
46653;SDS011;38960;51.074;17.004;2022-12-18T07:31:11;43.53;;;22.43;;
46653;SDS011;38960;51.074;17.004;2022-12-18T07:33:38;46.50;;;21.63;;
46653;SDS011;38960;51.074;17.004;2022-12-18T07:36:05;103.93;;;42.70;;
46653;SDS011;38960;51.074;17.004;2022-12-18T07:38:32;62.53;;;29.43;;
46653;SDS011;38960;51.074;17.004;2022-12-18T07:41:05;64.80;;;27.70;;
46653;SDS011;38960;51.074;17.004;2022-12-18T07:43:32;61.80;;;29.07;;
46653;SDS011;38960;51.074;17.004;2022-12-18T07:45:58;56.00;;;25.37;;
46653;SDS011;38960;51.074;17.004;2022-12-18T07:48:24;45.73;;;21.67;;
46653;SDS011;38960;51.074;17.004;2022-12-18T07:50:50;41.53;;;21.63;;
46653;SDS011;38960;51.074;17.004;2022-12-18T07:53:16;61.63;;;28.67;;
46653;SDS011;38960;51.074;17.004;2022-12-18T07:55:41;82.60;;;35.83;;
46653;SDS011;38960;51.074;17.004;2022-12-18T07:58:07;42.87;;;22.43;;
46653;SDS011;38960;51.074;17.004;2022-12-18T08:00:33;41.83;;;20.10;;
46653;SDS011;38960;51.074;17.004;2022-12-18T08:02:59;75.70;;;34.20;;
46653;SDS011;38960;51.074;17.004;2022-12-18T08:05:24;91.87;;;39.63;;
46653;SDS011;38960;51.074;17.004;2022-12-18T08:07:50;50.13;;;24.37;;
46653;SDS011;38960;51.074;17.004;2022-12-18T08:10:16;42.43;;;21.83;;
46653;SDS011;38960;51.074;17.004;2022-12-18T08:12:42;67.30;;;30.30;;
46653;SDS011;38960;51.074;17.004;2022-12-18T08:15:08;46.93;;;23.37;;
46653;SDS011;38960;51.074;17.004;2022-12-18T08:17:34;45.40;;;22.70;;
46653;SDS011;38960;51.074;17.004;2022-12-18T08:19:59;55.47;;;24.67;;
46653;SDS011;38960;51.074;17.004;2022-12-18T08:22:25;60.10;;;27.67;;
46653;SDS011;38960;51.074;17.004;2022-12-18T08:24:50;45.47;;;22.13;;
46653;SDS011;38960;51.074;17.004;2022-12-18T08:27:16;43.50;;;22.10;;
46653;SDS011;38960;51.074;17.004;2022-12-18T08:29:42;42.03;;;20.43;;
46653;SDS011;38960;51.074;17.004;2022-12-18T08:32:07;48.27;;;21.90;;
46653;SDS011;38960;51.074;17.004;2022-12-18T08:34:33;45.33;;;23.00;;
46653;SDS011;38960;51.074;17.004;2022-12-18T08:36:58;43.13;;;21.37;;
46653;SDS011;38960;51.074;17.004;2022-12-18T08:39:24;46.93;;;23.03;;
46653;SDS011;38960;51.074;17.004;2022-12-18T08:41:49;41.87;;;20.87;;
46653;SDS011;38960;51.074;17.004;2022-12-18T08:44:33;39.47;;;19.17;;
46653;SDS011;38960;51.074;17.004;2022-12-18T08:47:06;42.45;;;20.45;;
46653;SDS011;38960;51.074;17.004;2022-12-18T08:49:32;42.23;;;19.77;;
46653;SDS011;38960;51.074;17.004;2022-12-18T08:51:58;42.27;;;20.53;;
46653;SDS011;38960;51.074;17.004;2022-12-18T08:54:23;40.60;;;20.77;;
46653;SDS011;38960;51.074;17.004;2022-12-18T08:56:50;48.93;;;22.00;;
46653;SDS011;38960;51.074;17.004;2022-12-18T08:59:16;47.70;;;23.13;;
46653;SDS011;38960;51.074;17.004;2022-12-18T09:01:42;41.47;;;20.70;;
46653;SDS011;38960;51.074;17.004;2022-12-18T09:04:08;43.87;;;20.90;;
46653;SDS011;38960;51.074;17.004;2022-12-18T09:06:34;43.30;;;22.23;;
46653;SDS011;38960;51.074;17.004;2022-12-18T09:09:00;44.27;;;21.43;;
46653;SDS011;38960;51.074;17.004;2022-12-18T09:11:26;45.10;;;21.37;;
46653;SDS011;38960;51.074;17.004;2022-12-18T09:13:53;41.47;;;21.03;;
46653;SDS011;38960;51.074;17.004;2022-12-18T09:16:19;43.90;;;20.83;;
46653;SDS011;38960;51.074;17.004;2022-12-18T09:18:45;40.37;;;20.23;;
46653;SDS011;38960;51.074;17.004;2022-12-18T09:21:20;43.10;;;21.30;;
46653;SDS011;38960;51.074;17.004;2022-12-18T09:23:52;43.20;;;20.37;;
46653;SDS011;38960;51.074;17.004;2022-12-18T09:26:19;41.60;;;20.80;;
46653;SDS011;38960;51.074;17.004;2022-12-18T09:28:45;48.67;;;20.60;;
46653;SDS011;38960;51.074;17.004;2022-12-18T09:31:11;40.83;;;20.10;;
46653;SDS011;38960;51.074;17.004;2022-12-18T09:33:38;42.90;;;22.73;;
46653;SDS011;38960;51.074;17.004;2022-12-18T09:36:05;40.97;;;20.60;;
46653;SDS011;38960;51.074;17.004;2022-12-18T09:38:32;40.30;;;20.13;;
46653;SDS011;38960;51.074;17.004;2022-12-18T09:43:58;41.77;;;21.70;;
46653;SDS011;38960;51.074;17.004;2022-12-18T09:46:27;40.87;;;20.30;;
46653;SDS011;38960;51.074;17.004;2022-12-18T09:48:57;48.30;;;21.60;;
46653;SDS011;38960;51.074;17.004;2022-12-18T09:51:43;45.50;;;22.10;;
46653;SDS011;38960;51.074;17.004;2022-12-18T09:54:20;51.43;;;23.00;;
46653;SDS011;38960;51.074;17.004;2022-12-18T09:56:47;42.13;;;22.63;;
46653;SDS011;38960;51.074;17.004;2022-12-18T09:59:34;45.67;;;21.47;;
46653;SDS011;38960;51.074;17.004;2022-12-18T10:02:12;54.80;;;25.10;;
46653;SDS011;38960;51.074;17.004;2022-12-18T10:04:40;55.13;;;24.57;;
46653;SDS011;38960;51.074;17.004;2022-12-18T10:07:16;48.97;;;23.33;;
46653;SDS011;38960;51.074;17.004;2022-12-18T10:10:10;52.97;;;24.27;;
46653;SDS011;38960;51.074;17.004;2022-12-18T10:20:45;47.53;;;21.83;;
46653;SDS011;38960;51.074;17.004;2022-12-18T10:23:19;49.37;;;22.13;;
46653;SDS011;38960;51.074;17.004;2022-12-18T10:26:05;46.97;;;22.23;;
46653;SDS011;38960;51.074;17.004;2022-12-18T10:28:32;47.33;;;21.30;;
46653;SDS011;38960;51.074;17.004;2022-12-18T10:31:00;53.53;;;23.70;;
46653;SDS011;38960;51.074;17.004;2022-12-18T10:33:28;52.83;;;23.43;;
46653;SDS011;38960;51.074;17.004;2022-12-18T10:35:55;51.20;;;23.37;;
46653;SDS011;38960;51.074;17.004;2022-12-18T10:38:30;55.40;;;24.73;;
46653;SDS011;38960;51.074;17.004;2022-12-18T10:40:58;56.83;;;25.30;;
46653;SDS011;38960;51.074;17.004;2022-12-18T10:43:26;92.67;;;36.17;;
46653;SDS011;38960;51.074;17.004;2022-12-18T10:46:03;95.23;;;35.10;;
46653;SDS011;38960;51.074;17.004;2022-12-18T10:48:33;93.20;;;37.27;;
46653;SDS011;38960;51.074;17.004;2022-12-18T10:51:01;70.07;;;28.97;;
46653;SDS011;38960;51.074;17.004;2022-12-18T10:53:28;65.67;;;28.40;;
46653;SDS011;38960;51.074;17.004;2022-12-18T10:55:58;64.70;;;29.63;;
46653;SDS011;38960;51.074;17.004;2022-12-18T10:58:26;72.83;;;31.70;;
46653;SDS011;38960;51.074;17.004;2022-12-18T11:06:10;59.93;;;26.10;;
46653;SDS011;38960;51.074;17.004;2022-12-18T11:08:37;59.40;;;24.63;;
46653;SDS011;38960;51.074;17.004;2022-12-18T11:11:03;48.67;;;24.83;;
46653;SDS011;38960;51.074;17.004;2022-12-18T11:13:31;63.23;;;27.73;;
46653;SDS011;38960;51.074;17.004;2022-12-18T11:15:57;47.13;;;20.90;;
46653;SDS011;38960;51.074;17.004;2022-12-18T11:20:54;48.80;;;21.70;;
46653;SDS011;38960;51.074;17.004;2022-12-18T11:23:24;53.47;;;24.55;;
46653;SDS011;38960;51.074;17.004;2022-12-18T11:25:54;43.73;;;21.33;;
46653;SDS011;38960;51.074;17.004;2022-12-18T11:31:16;44.17;;;20.53;;
46653;SDS011;38960;51.074;17.004;2022-12-18T11:33:56;41.85;;;18.88;;
46653;SDS011;38960;51.074;17.004;2022-12-18T11:36:49;42.00;;;19.43;;
46653;SDS011;38960;51.074;17.004;2022-12-18T11:39:19;46.33;;;22.10;;
46653;SDS011;38960;51.074;17.004;2022-12-18T11:41:56;39.57;;;19.90;;
46653;SDS011;38960;51.074;17.004;2022-12-18T11:47:15;40.47;;;19.23;;
46653;SDS011;38960;51.074;17.004;2022-12-18T11:50:00;42.17;;;19.33;;
46653;SDS011;38960;51.074;17.004;2022-12-18T11:52:28;45.77;;;19.67;;
46653;SDS011;38960;51.074;17.004;2022-12-18T11:55:04;48.83;;;21.30;;
46653;SDS011;38960;51.074;17.004;2022-12-18T12:00:36;49.67;;;21.07;;
46653;SDS011;38960;51.074;17.004;2022-12-18T12:04:00;54.07;;;24.40;;
46653;SDS011;38960;51.074;17.004;2022-12-18T12:08:51;48.85;;;23.10;;
46653;SDS011;38960;51.074;17.004;2022-12-18T12:11:29;51.73;;;23.97;;
46653;SDS011;38960;51.074;17.004;2022-12-18T12:24:45;55.23;;;24.20;;
46653;SDS011;38960;51.074;17.004;2022-12-18T12:27:32;57.03;;;23.87;;
46653;SDS011;38960;51.074;17.004;2022-12-18T12:38:50;65.43;;;28.83;;
46653;SDS011;38960;51.074;17.004;2022-12-18T12:41:23;58.87;;;27.37;;
46653;SDS011;38960;51.074;17.004;2022-12-18T12:44:13;61.93;;;26.00;;
46653;SDS011;38960;51.074;17.004;2022-12-18T12:46:42;58.27;;;25.40;;
46653;SDS011;38960;51.074;17.004;2022-12-18T12:49:13;56.70;;;26.13;;
46653;SDS011;38960;51.074;17.004;2022-12-18T12:51:49;58.33;;;24.57;;
46653;SDS011;38960;51.074;17.004;2022-12-18T12:54:25;54.00;;;26.53;;
46653;SDS011;38960;51.074;17.004;2022-12-18T12:56:57;59.30;;;25.13;;
46653;SDS011;38960;51.074;17.004;2022-12-18T13:04:52;64.45;;;26.40;;
46653;SDS011;38960;51.074;17.004;2022-12-18T13:07:27;57.53;;;26.67;;
46653;SDS011;38960;51.074;17.004;2022-12-18T13:20:34;60.77;;;25.27;;
46653;SDS011;38960;51.074;17.004;2022-12-18T13:36:36;66.10;;;31.73;;
46653;SDS011;38960;51.074;17.004;2022-12-18T13:39:09;70.40;;;30.07;;
46653;SDS011;38960;51.074;17.004;2022-12-18T13:41:48;69.07;;;29.55;;
46653;SDS011;38960;51.074;17.004;2022-12-18T13:44:31;72.43;;;30.05;;
46653;SDS011;38960;51.074;17.004;2022-12-18T13:46:58;68.90;;;29.77;;
46653;SDS011;38960;51.074;17.004;2022-12-18T13:51:56;61.60;;;27.93;;
46653;SDS011;38960;51.074;17.004;2022-12-18T14:02:05;63.10;;;27.03;;
46653;SDS011;38960;51.074;17.004;2022-12-18T14:04:38;56.87;;;27.43;;
46653;SDS011;38960;51.074;17.004;2022-12-18T14:07:04;59.67;;;26.87;;
46653;SDS011;38960;51.074;17.004;2022-12-18T14:09:35;62.17;;;27.03;;
46653;SDS011;38960;51.074;17.004;2022-12-18T14:12:04;62.60;;;25.57;;
46653;SDS011;38960;51.074;17.004;2022-12-18T14:14:49;69.93;;;30.43;;
46653;SDS011;38960;51.074;17.004;2022-12-18T14:17:16;68.33;;;29.97;;
46653;SDS011;38960;51.074;17.004;2022-12-18T14:19:43;67.03;;;29.20;;
46653;SDS011;38960;51.074;17.004;2022-12-18T14:22:17;67.10;;;30.10;;
46653;SDS011;38960;51.074;17.004;2022-12-18T14:24:47;60.57;;;27.67;;
46653;SDS011;38960;51.074;17.004;2022-12-18T14:27:20;70.37;;;31.70;;
46653;SDS011;38960;51.074;17.004;2022-12-18T14:29:47;66.90;;;28.67;;
46653;SDS011;38960;51.074;17.004;2022-12-18T14:32:13;65.67;;;29.93;;
46653;SDS011;38960;51.074;17.004;2022-12-18T14:34:51;62.90;;;28.93;;
46653;SDS011;38960;51.074;17.004;2022-12-18T14:37:23;60.30;;;29.03;;
46653;SDS011;38960;51.074;17.004;2022-12-18T14:39:53;71.00;;;30.27;;
46653;SDS011;38960;51.074;17.004;2022-12-18T14:42:20;63.57;;;28.30;;
46653;SDS011;38960;51.074;17.004;2022-12-18T14:44:45;63.33;;;27.90;;
46653;SDS011;38960;51.074;17.004;2022-12-18T14:47:15;74.00;;;31.00;;
46653;SDS011;38960;51.074;17.004;2022-12-18T14:49:41;68.07;;;29.53;;
46653;SDS011;38960;51.074;17.004;2022-12-18T14:52:22;71.03;;;29.03;;
46653;SDS011;38960;51.074;17.004;2022-12-18T14:54:51;66.40;;;30.00;;
46653;SDS011;38960;51.074;17.004;2022-12-18T14:57:24;68.80;;;31.33;;
46653;SDS011;38960;51.074;17.004;2022-12-18T14:59:51;66.27;;;29.97;;
46653;SDS011;38960;51.074;17.004;2022-12-18T15:07:51;69.43;;;29.57;;
46653;SDS011;38960;51.074;17.004;2022-12-18T15:10:19;68.63;;;29.67;;
46653;SDS011;38960;51.074;17.004;2022-12-18T15:12:47;66.20;;;28.73;;
46653;SDS011;38960;51.074;17.004;2022-12-18T15:17:58;65.67;;;28.07;;
46653;SDS011;38960;51.074;17.004;2022-12-18T15:20:24;60.57;;;27.83;;
46653;SDS011;38960;51.074;17.004;2022-12-18T15:22:50;64.60;;;27.13;;
46653;SDS011;38960;51.074;17.004;2022-12-18T15:25:32;59.63;;;26.20;;
46653;SDS011;38960;51.074;17.004;2022-12-18T15:28:02;62.00;;;28.73;;
46653;SDS011;38960;51.074;17.004;2022-12-18T15:30:28;67.07;;;32.37;;
46653;SDS011;38960;51.074;17.004;2022-12-18T15:33:16;67.53;;;31.57;;
46653;SDS011;38960;51.074;17.004;2022-12-18T15:35:55;60.97;;;27.00;;
46653;SDS011;38960;51.074;17.004;2022-12-18T15:38:21;62.67;;;29.03;;
46653;SDS011;38960;51.074;17.004;2022-12-18T15:40:47;66.93;;;29.07;;
46653;SDS011;38960;51.074;17.004;2022-12-18T15:43:12;57.33;;;28.17;;
46653;SDS011;38960;51.074;17.004;2022-12-18T15:45:56;61.43;;;28.10;;
46653;SDS011;38960;51.074;17.004;2022-12-18T15:48:22;64.83;;;28.13;;
46653;SDS011;38960;51.074;17.004;2022-12-18T15:50:51;67.70;;;29.53;;
46653;SDS011;38960;51.074;17.004;2022-12-18T15:53:18;63.63;;;29.63;;
46653;SDS011;38960;51.074;17.004;2022-12-18T15:55:44;61.37;;;30.00;;
46653;SDS011;38960;51.074;17.004;2022-12-18T15:58:28;68.70;;;31.27;;
46653;SDS011;38960;51.074;17.004;2022-12-18T16:00:53;67.27;;;29.77;;
46653;SDS011;38960;51.074;17.004;2022-12-18T16:03:19;66.60;;;31.27;;
46653;SDS011;38960;51.074;17.004;2022-12-18T16:05:45;72.33;;;34.00;;
46653;SDS011;38960;51.074;17.004;2022-12-18T16:08:10;70.83;;;32.17;;
46653;SDS011;38960;51.074;17.004;2022-12-18T16:10:36;67.53;;;30.80;;
46653;SDS011;38960;51.074;17.004;2022-12-18T16:13:01;74.40;;;35.37;;
46653;SDS011;38960;51.074;17.004;2022-12-18T16:15:27;74.80;;;34.67;;
46653;SDS011;38960;51.074;17.004;2022-12-18T16:17:52;80.30;;;36.97;;
46653;SDS011;38960;51.074;17.004;2022-12-18T16:20:19;76.87;;;34.73;;
46653;SDS011;38960;51.074;17.004;2022-12-18T16:22:46;80.47;;;35.40;;